createdAt,value
2019-06-20T00:01:48.895Z,16.02
2019-06-20T00:04:27.737Z,15.78
2019-06-20T00:07:06.115Z,14.25
2019-06-20T00:09:44.534Z,16.87
2019-06-20T00:12:22.017Z,16.67
2019-06-20T00:15:00.462Z,12.80
2019-06-20T00:17:38.343Z,11.40
2019-06-20T00:20:16.403Z,13.58
2019-06-20T00:22:54.095Z,11.80
2019-06-20T00:25:32.037Z,11.57
2019-06-20T00:28:10.072Z,11.10
2019-06-20T00:30:48.777Z,10.28
2019-06-20T00:33:27.242Z,10.40
2019-06-20T00:36:05.362Z,9.60
2019-06-20T00:38:44.301Z,9.28
2019-06-20T00:41:23.188Z,8.85
2019-06-20T00:44:02.160Z,9.40
2019-06-20T00:46:40.493Z,8.60
2019-06-20T00:49:18.680Z,9.00
2019-06-20T00:51:58.852Z,4.85
2019-06-20T00:54:38.673Z,4.78
2019-06-20T00:57:24.203Z,4.80
2019-06-20T01:00:02.078Z,5.22
2019-06-20T01:02:40.508Z,4.30
2019-06-20T01:05:18.087Z,4.40
2019-06-20T01:07:55.576Z,4.58
2019-06-20T01:10:34.356Z,4.45
2019-06-20T01:13:12.771Z,4.92
2019-06-20T01:15:51.031Z,5.30
2019-06-20T01:18:29.084Z,5.28
2019-06-20T01:21:07.377Z,5.60
2019-06-20T01:23:46.490Z,5.40
2019-06-20T01:26:23.796Z,5.12
2019-06-20T01:29:02.263Z,5.05
2019-06-20T01:31:39.515Z,4.95
2019-06-20T01:34:18.643Z,4.75
2019-06-20T01:36:57.279Z,4.45
2019-06-20T01:39:34.023Z,4.67
2019-06-20T01:42:12.047Z,4.60
2019-06-20T01:44:51.626Z,4.60
2019-06-20T01:47:30.626Z,4.78
2019-06-20T01:50:08.626Z,5.58
2019-06-20T01:52:46.629Z,4.92
2019-06-20T01:55:25.198Z,5.10
2019-06-20T01:58:03.461Z,5.45
2019-06-20T02:01:00.560Z,5.28
2019-06-20T02:03:38.281Z,5.40
2019-06-20T02:06:16.278Z,4.65
2019-06-20T02:08:55.414Z,4.85
2019-06-20T02:11:32.727Z,4.80
2019-06-20T02:14:12.419Z,5.10
2019-06-20T02:16:51.255Z,5.20
2019-06-20T02:19:29.181Z,5.10
2019-06-20T02:22:07.913Z,4.92
2019-06-20T02:24:46.224Z,4.42
2019-06-20T02:27:24.170Z,4.70
2019-06-20T02:30:02.519Z,4.67
2019-06-20T02:32:41.028Z,4.45
2019-06-20T02:35:18.794Z,4.50
2019-06-20T02:37:58.373Z,4.60
2019-06-20T02:40:36.365Z,4.97
2019-06-20T02:43:14.226Z,4.90
2019-06-20T02:45:52.209Z,4.55
2019-06-20T02:48:33.742Z,4.47
2019-06-20T02:51:11.654Z,5.33
2019-06-20T02:53:50.292Z,4.85
2019-06-20T02:56:28.804Z,4.97
2019-06-20T02:59:07.585Z,5.50
2019-06-20T03:01:46.461Z,5.00
2019-06-20T03:04:25.012Z,4.90
2019-06-20T03:07:03.530Z,4.17
2019-06-20T03:09:41.053Z,4.50
2019-06-20T03:12:19.577Z,4.35
2019-06-20T03:14:57.436Z,4.80
2019-06-20T03:17:36.212Z,4.37
2019-06-20T03:20:15.058Z,4.20
2019-06-20T03:22:53.131Z,4.70
2019-06-20T03:25:31.662Z,4.10
2019-06-20T03:28:08.753Z,4.62
2019-06-20T03:30:46.622Z,3.87
2019-06-20T03:33:24.069Z,4.53
2019-06-20T03:36:01.596Z,4.50
2019-06-20T03:38:39.787Z,4.53
2019-06-20T03:41:18.364Z,4.42
2019-06-20T03:43:59.025Z,4.00
2019-06-20T03:46:36.464Z,3.80
2019-06-20T03:49:13.450Z,4.17
2019-06-20T03:51:51.816Z,4.10
2019-06-20T03:54:30.331Z,4.25
2019-06-20T03:57:09.038Z,4.15
2019-06-20T03:59:46.956Z,4.10
2019-06-20T04:02:25.118Z,3.90
2019-06-20T04:05:04.308Z,4.10
2019-06-20T04:07:42.147Z,4.12
2019-06-20T04:10:20.987Z,4.75
2019-06-20T04:12:59.757Z,4.17
2019-06-20T04:15:38.679Z,4.35
2019-06-20T04:18:17.609Z,3.72
2019-06-20T04:20:56.200Z,3.98
2019-06-20T04:23:34.355Z,4.25
2019-06-20T04:26:12.209Z,3.87
2019-06-20T04:28:50.318Z,3.80
2019-06-20T04:31:28.100Z,3.80
2019-06-20T04:34:04.775Z,4.30
2019-06-20T04:36:43.337Z,4.45
2019-06-20T04:39:21.114Z,4.60
2019-06-20T04:42:00.069Z,4.42
2019-06-20T04:44:38.401Z,4.60
2019-06-20T04:47:16.903Z,4.17
2019-06-20T04:49:55.050Z,4.00
2019-06-20T04:52:33.687Z,4.80
2019-06-20T04:55:10.790Z,3.58
2019-06-20T04:57:48.606Z,3.17
2019-06-20T05:00:28.514Z,3.60
2019-06-20T05:03:07.202Z,3.35
2019-06-20T05:05:46.480Z,3.27
2019-06-20T05:08:23.910Z,2.92
2019-06-20T05:11:05.401Z,2.87
2019-06-20T05:13:43.348Z,3.45
2019-06-20T05:16:21.751Z,2.77
2019-06-20T05:18:59.804Z,3.12
2019-06-20T05:21:38.325Z,2.77
2019-06-20T05:24:17.197Z,2.47
2019-06-20T05:26:55.079Z,2.67
2019-06-20T05:29:33.462Z,2.70
2019-06-20T05:32:12.344Z,2.98
2019-06-20T05:34:50.369Z,2.83
2019-06-20T05:37:28.949Z,2.70
2019-06-20T05:40:11.326Z,3.00
2019-06-20T05:42:49.024Z,3.40
2019-06-20T05:45:27.282Z,2.80
2019-06-20T05:48:05.900Z,3.37
2019-06-20T05:50:46.784Z,3.08
2019-06-20T05:53:24.610Z,2.58
2019-06-20T05:56:03.908Z,3.42
2019-06-20T05:58:41.382Z,3.35
2019-06-20T06:01:20.267Z,3.02
2019-06-20T06:03:58.335Z,3.00
2019-06-20T06:06:36.980Z,2.77
2019-06-20T06:09:18.498Z,2.58
2019-06-20T06:11:56.533Z,3.17
2019-06-20T06:14:34.460Z,3.20
2019-06-20T06:17:12.552Z,2.80
2019-06-20T06:19:50.762Z,2.67
2019-06-20T06:22:29.420Z,2.12
2019-06-20T06:25:07.944Z,2.47
2019-06-20T06:27:45.911Z,2.33
2019-06-20T06:30:24.006Z,2.45
2019-06-20T06:33:02.912Z,3.87
2019-06-20T06:35:41.803Z,5.78
2019-06-20T06:38:22.439Z,4.10
2019-06-20T06:41:00.333Z,2.30
2019-06-20T06:43:42.049Z,2.67
2019-06-20T06:46:18.415Z,2.33
2019-06-20T06:48:56.833Z,2.55
2019-06-20T06:51:38.045Z,2.58
2019-06-20T06:54:13.376Z,2.20
2019-06-20T06:56:50.798Z,2.02
2019-06-20T06:59:29.767Z,2.02
2019-06-20T07:02:07.543Z,2.10
2019-06-20T07:04:45.371Z,3.85
2019-06-20T07:07:23.433Z,2.10
2019-06-20T07:10:09.351Z,2.25
2019-06-20T07:12:48.276Z,2.20
2019-06-20T07:15:26.559Z,1.90
2019-06-20T07:18:05.403Z,2.15
2019-06-20T07:20:44.135Z,1.70
2019-06-20T07:23:21.496Z,1.87
2019-06-20T07:26:00.679Z,1.90
2019-06-20T07:28:38.991Z,1.90
2019-06-20T07:31:16.681Z,1.80
2019-06-20T07:33:55.322Z,2.00
2019-06-20T07:36:33.805Z,1.62
2019-06-20T07:39:16.916Z,1.87
2019-06-20T07:41:55.326Z,2.00
2019-06-20T07:44:33.424Z,1.90
2019-06-20T07:47:17.620Z,1.95
2019-06-20T07:49:52.043Z,2.10
2019-06-20T07:52:28.950Z,1.98
2019-06-20T07:55:06.333Z,2.50
2019-06-20T07:57:45.287Z,5.40
2019-06-20T08:00:23.753Z,8.85
2019-06-20T08:03:00.742Z,6.92
2019-06-20T08:05:38.963Z,3.35
2019-06-20T08:08:15.787Z,2.08
2019-06-20T08:10:53.835Z,2.08
2019-06-20T08:13:32.204Z,1.95
2019-06-20T08:16:10.295Z,1.85
2019-06-20T08:18:49.084Z,2.20
2019-06-20T08:21:28.240Z,2.10
2019-06-20T08:24:06.511Z,2.27
2019-06-20T08:26:44.433Z,1.95
2019-06-20T08:29:22.816Z,2.02
2019-06-20T08:32:02.678Z,2.30
2019-06-20T08:34:41.257Z,1.82
2019-06-20T08:37:18.797Z,2.02
2019-06-20T08:39:57.332Z,1.85
2019-06-20T08:42:36.400Z,1.80
2019-06-20T08:45:17.731Z,2.58
2019-06-20T08:47:57.025Z,1.80
2019-06-20T08:50:34.826Z,1.98
2019-06-20T08:53:12.626Z,1.95
2019-06-20T08:55:51.240Z,2.05
2019-06-20T08:58:29.011Z,2.10
2019-06-20T09:03:46.599Z,1.95
2019-06-20T09:06:24.476Z,2.15
2019-06-20T09:09:04.372Z,2.20
2019-06-20T09:11:43.254Z,2.33
2019-06-20T09:14:22.046Z,2.02
2019-06-20T09:17:02.919Z,2.67
2019-06-20T09:19:40.623Z,2.52
2019-06-20T09:22:18.591Z,2.35
2019-06-20T09:24:58.482Z,2.55
2019-06-20T09:27:37.228Z,2.47
2019-06-20T09:30:16.285Z,2.20
2019-06-20T09:32:55.574Z,2.30
2019-06-20T09:35:34.001Z,2.47
2019-06-20T09:38:13.183Z,1.95
2019-06-20T09:40:52.934Z,2.10
2019-06-20T09:43:30.666Z,2.00
2019-06-20T09:46:10.471Z,2.08
2019-06-20T09:48:49.305Z,2.30
2019-06-20T09:51:27.609Z,2.10
2019-06-20T09:54:05.512Z,2.10
2019-06-20T09:56:47.110Z,2.30
2019-06-20T09:59:27.846Z,2.35
2019-06-20T10:02:02.358Z,2.27
2019-06-20T10:04:40.633Z,2.20
2019-06-20T10:07:19.275Z,2.20
2019-06-20T10:09:58.096Z,2.12
2019-06-20T10:12:37.279Z,2.77
2019-06-20T10:15:26.189Z,2.47
2019-06-20T10:18:04.255Z,2.50
2019-06-20T10:20:42.458Z,2.40
2019-06-20T10:23:19.551Z,2.50
2019-06-20T10:25:58.217Z,2.70
2019-06-20T10:28:35.683Z,2.72
2019-06-20T10:31:13.622Z,2.35
2019-06-20T10:33:52.484Z,2.25
2019-06-20T10:36:29.936Z,2.62
2019-06-20T10:39:09.124Z,2.22
2019-06-20T10:41:48.507Z,2.37
2019-06-20T10:44:26.429Z,2.30
2019-06-20T10:47:04.858Z,3.98
2019-06-20T10:49:51.966Z,3.80
2019-06-20T10:52:30.806Z,4.30
2019-06-20T10:55:10.608Z,3.70
2019-06-20T10:57:49.624Z,8.45
2019-06-20T11:00:32.038Z,10.23
2019-06-20T11:03:08.505Z,9.10
2019-06-20T11:05:46.203Z,12.80
2019-06-20T11:08:25.433Z,8.70
2019-06-20T11:11:03.513Z,10.20
2019-06-20T11:13:42.133Z,9.18
2019-06-20T11:16:20.626Z,7.50
2019-06-20T11:19:00.152Z,5.60
2019-06-20T11:21:39.745Z,5.33
2019-06-20T11:24:18.404Z,4.55
2019-06-20T11:26:56.826Z,5.03
2019-06-20T11:29:34.664Z,12.47
2019-06-20T11:32:14.760Z,10.40
2019-06-20T11:34:53.771Z,10.40
2019-06-20T11:37:34.901Z,11.20
2019-06-20T11:40:13.044Z,7.08
2019-06-20T11:42:50.718Z,5.25
2019-06-20T11:45:30.296Z,5.92
2019-06-20T11:48:07.429Z,9.20
2019-06-20T11:50:46.289Z,8.18
2019-06-20T11:53:24.346Z,7.05
2019-06-20T11:56:02.111Z,6.05
2019-06-20T11:58:41.023Z,5.72
2019-06-20T12:01:32.269Z,7.35
2019-06-20T12:03:58.510Z,10.63
2019-06-20T12:06:38.436Z,12.30
2019-06-20T12:09:17.277Z,10.35
2019-06-20T12:11:56.432Z,10.53
2019-06-20T12:14:34.752Z,9.40
2019-06-20T12:17:13.197Z,9.70
2019-06-20T12:19:59.334Z,9.45
2019-06-20T12:22:39.387Z,10.13
2019-06-20T12:25:17.002Z,10.88
2019-06-20T12:27:55.909Z,8.28
2019-06-20T12:30:35.722Z,9.00
2019-06-20T12:33:12.859Z,8.73
2019-06-20T12:35:51.332Z,9.43
2019-06-20T12:38:30.696Z,9.15
2019-06-20T12:41:09.501Z,9.83
2019-06-20T12:43:48.409Z,10.85
2019-06-20T12:46:27.292Z,10.30
2019-06-20T12:49:05.219Z,11.43
2019-06-20T12:51:42.920Z,9.00
2019-06-20T12:54:20.315Z,10.30
2019-06-20T12:56:58.108Z,14.28
2019-06-20T12:59:38.043Z,14.58
2019-06-20T13:02:16.855Z,13.68
2019-06-20T13:04:53.568Z,15.23
2019-06-20T13:07:31.741Z,14.20
2019-06-20T13:10:10.689Z,15.30
2019-06-20T13:12:48.855Z,16.27
2019-06-20T13:15:27.773Z,15.13
2019-06-20T13:18:06.778Z,14.63
2019-06-20T13:20:46.185Z,20.50
2019-06-20T13:23:24.190Z,17.42
2019-06-20T13:26:02.063Z,17.67
2019-06-20T13:28:57.989Z,14.10
2019-06-20T13:31:19.735Z,15.25
2019-06-20T13:33:58.234Z,19.07
2019-06-20T13:36:36.061Z,17.52
2019-06-20T13:39:13.959Z,18.55
2019-06-20T13:41:52.193Z,17.40
2019-06-20T13:44:29.986Z,16.77
2019-06-20T13:47:07.738Z,18.52
2019-06-20T13:49:47.712Z,17.90
2019-06-20T13:52:26.671Z,17.52
2019-06-20T13:55:04.442Z,16.17
2019-06-20T13:57:43.008Z,15.78
2019-06-20T14:00:21.795Z,14.60
2019-06-20T14:02:59.697Z,14.00
2019-06-20T14:05:37.541Z,13.65
2019-06-20T14:08:15.519Z,12.82
2019-06-20T14:10:52.812Z,12.33
2019-06-20T14:13:29.444Z,12.28
2019-06-20T14:16:08.787Z,11.85
2019-06-20T14:18:47.099Z,11.90
2019-06-20T14:21:25.314Z,11.38
2019-06-20T14:24:04.992Z,11.75
2019-06-20T14:26:44.661Z,11.03
2019-06-20T14:29:22.033Z,10.43
2019-06-20T14:32:00.326Z,10.82
2019-06-20T14:34:37.692Z,10.88
2019-06-20T14:37:16.360Z,10.38
2019-06-20T14:39:54.929Z,10.08
2019-06-20T14:42:32.982Z,9.60
2019-06-20T14:45:11.536Z,10.63
2019-06-20T14:47:52.296Z,10.30
2019-06-20T14:50:29.601Z,10.63
2019-06-20T14:53:07.126Z,11.18
2019-06-20T14:55:45.994Z,10.23
2019-06-20T14:58:24.294Z,10.43
2019-06-20T15:01:02.631Z,10.03
2019-06-20T15:03:40.431Z,9.03
2019-06-20T15:06:17.891Z,9.35
2019-06-20T15:09:03.238Z,8.70
2019-06-20T15:11:36.597Z,9.55
2019-06-20T15:14:14.143Z,8.90
2019-06-20T15:16:53.536Z,8.28
2019-06-20T15:19:31.556Z,9.13
2019-06-20T15:22:09.818Z,9.05
2019-06-20T15:24:51.810Z,8.93
2019-06-20T15:27:28.715Z,9.80
2019-06-20T15:30:08.696Z,10.78
2019-06-20T15:32:59.286Z,10.55
2019-06-20T15:35:26.744Z,9.85
2019-06-20T15:38:05.064Z,9.58
2019-06-20T15:40:44.524Z,9.58
2019-06-20T15:43:22.851Z,10.23
2019-06-20T15:46:01.298Z,10.40
2019-06-20T15:48:47.103Z,9.60
2019-06-20T15:51:25.719Z,9.85
2019-06-20T15:54:04.067Z,10.25
2019-06-20T15:56:41.895Z,11.40
2019-06-20T15:59:19.414Z,10.78
2019-06-20T16:01:57.954Z,11.75
2019-06-20T16:04:37.602Z,9.78
2019-06-20T16:07:15.394Z,9.78
2019-06-20T16:09:54.159Z,9.88
2019-06-20T16:12:32.347Z,10.45
2019-06-20T16:15:11.622Z,9.98
2019-06-20T16:17:49.395Z,10.13
2019-06-20T16:20:28.146Z,9.75
2019-06-20T16:23:05.253Z,9.88
2019-06-20T16:25:43.599Z,9.93
2019-06-20T16:28:21.746Z,10.20
2019-06-20T16:31:08.286Z,9.25
2019-06-20T16:33:40.213Z,9.80
2019-06-20T16:36:18.468Z,11.05
2019-06-20T16:38:57.032Z,10.85
2019-06-20T16:41:35.497Z,10.65
2019-06-20T16:44:13.231Z,10.93
2019-06-20T16:46:51.420Z,11.12
2019-06-20T16:49:28.606Z,11.57
2019-06-20T16:52:07.238Z,10.58
2019-06-20T16:54:47.080Z,10.05
2019-06-20T16:57:26.287Z,12.25
2019-06-20T17:00:04.540Z,11.45
2019-06-20T17:02:43.780Z,12.10
2019-06-20T17:05:21.551Z,11.95
2019-06-20T17:07:59.841Z,11.95
2019-06-20T17:10:39.023Z,12.78
2019-06-20T17:13:17.014Z,13.10
2019-06-20T17:15:54.426Z,14.45
2019-06-20T17:18:32.759Z,14.23
2019-06-20T17:21:11.031Z,12.20
2019-06-20T17:23:49.562Z,12.30
2019-06-20T17:26:28.445Z,12.70
2019-06-20T17:29:06.808Z,12.90
2019-06-20T17:31:45.047Z,13.00
2019-06-20T17:34:25.555Z,13.15
2019-06-20T17:37:04.136Z,11.20
2019-06-20T17:39:42.317Z,12.88
2019-06-20T17:42:20.688Z,13.60
2019-06-20T17:44:58.251Z,13.48
2019-06-20T17:47:35.643Z,13.20
2019-06-20T17:50:14.337Z,12.82
2019-06-20T17:52:51.614Z,13.55
2019-06-20T17:55:30.389Z,13.98
2019-06-20T17:58:08.789Z,13.72
2019-06-20T18:00:48.081Z,13.62
2019-06-20T18:03:27.559Z,13.48
2019-06-20T18:06:06.266Z,12.28
2019-06-20T18:08:43.744Z,12.78
2019-06-20T18:11:22.386Z,13.83
2019-06-20T18:14:01.389Z,13.55
2019-06-20T18:16:38.047Z,13.35
2019-06-20T18:19:18.008Z,12.75
2019-06-20T18:21:56.563Z,13.08
2019-06-20T18:24:35.041Z,13.30
2019-06-20T18:27:13.512Z,13.05
2019-06-20T18:29:51.963Z,13.68
2019-06-20T18:32:30.685Z,13.10
2019-06-20T18:35:09.693Z,13.45
2019-06-20T18:37:48.613Z,14.30
2019-06-20T18:40:25.992Z,17.45
2019-06-20T18:43:04.363Z,16.35
2019-06-20T18:45:41.892Z,13.95
2019-06-20T18:48:19.909Z,16.07
2019-06-20T18:50:58.419Z,16.77
2019-06-20T18:53:36.848Z,16.67
2019-06-20T18:56:15.599Z,16.62
2019-06-20T18:58:53.945Z,16.12
2019-06-20T19:01:33.355Z,12.43
2019-06-20T19:04:11.462Z,11.18
2019-06-20T19:06:48.595Z,11.10
2019-06-20T19:09:44.647Z,10.88
2019-06-20T19:12:22.361Z,11.65
2019-06-20T19:14:59.895Z,12.53
2019-06-20T19:17:38.508Z,10.35
2019-06-20T19:20:16.987Z,9.50
2019-06-20T19:22:55.389Z,9.68
2019-06-20T19:25:33.283Z,9.28
2019-06-20T19:28:11.419Z,9.03
2019-06-20T19:30:54.855Z,8.93
2019-06-20T19:33:33.250Z,8.88
2019-06-20T19:36:12.928Z,8.85
2019-06-20T19:38:50.804Z,9.03
2019-06-20T19:41:28.886Z,8.40
2019-06-20T19:44:07.060Z,8.13
2019-06-20T19:46:45.631Z,8.50
2019-06-20T19:49:23.136Z,8.85
2019-06-20T19:52:01.911Z,8.28
2019-06-20T19:54:40.427Z,8.50
2019-06-20T19:57:18.666Z,8.65
2019-06-20T19:59:57.185Z,9.65
2019-06-20T20:02:39.822Z,9.03
2019-06-20T20:05:20.043Z,9.03
2019-06-20T20:07:59.050Z,9.03
2019-06-20T20:10:49.647Z,8.73
2019-06-20T20:13:29.286Z,10.03
2019-06-20T20:16:07.471Z,10.08
2019-06-20T20:18:45.896Z,10.32
2019-06-20T20:21:23.967Z,10.28
2019-06-20T20:24:02.365Z,9.25
2019-06-20T20:26:41.001Z,10.03
2019-06-20T20:29:18.377Z,11.25
2019-06-20T20:31:57.120Z,10.95
2019-06-20T20:34:36.483Z,10.70
2019-06-20T20:37:14.304Z,10.88
2019-06-20T20:39:52.537Z,11.60
2019-06-20T20:42:31.506Z,11.10
2019-06-20T20:45:10.623Z,11.68
2019-06-20T20:47:47.981Z,12.78
2019-06-20T20:50:26.403Z,10.85
2019-06-20T20:53:04.867Z,11.38
2019-06-20T20:55:43.401Z,11.20
2019-06-20T20:58:22.417Z,11.65
2019-06-20T21:01:23.291Z,11.78
2019-06-20T21:04:01.250Z,10.98
2019-06-20T21:06:40.539Z,11.45
2019-06-20T21:09:19.117Z,10.65
2019-06-20T21:11:56.837Z,10.63
2019-06-20T21:14:34.586Z,11.60
2019-06-20T21:17:14.071Z,11.15
2019-06-20T21:19:52.882Z,11.35
2019-06-20T21:22:31.512Z,11.40
2019-06-20T21:25:09.453Z,10.43
2019-06-20T21:27:47.688Z,10.43
2019-06-20T21:30:27.218Z,10.18
2019-06-20T21:33:05.055Z,10.82
2019-06-20T21:35:44.892Z,10.88
2019-06-20T21:38:23.394Z,10.48
2019-06-20T21:41:01.363Z,9.98
2019-06-20T21:43:39.196Z,10.90
2019-06-20T21:46:16.055Z,9.75
2019-06-20T21:48:54.599Z,10.05
2019-06-20T21:51:32.601Z,9.65
2019-06-20T21:54:10.690Z,10.53
2019-06-20T21:56:49.198Z,10.00
2019-06-20T21:59:27.801Z,10.20
2019-06-20T22:02:06.038Z,9.98
2019-06-20T22:04:54.049Z,9.55
2019-06-20T22:07:23.222Z,8.78
2019-06-20T22:10:00.839Z,9.70
2019-06-20T22:12:40.610Z,9.90
2019-06-20T22:15:18.166Z,9.35
2019-06-20T22:17:57.072Z,9.33
2019-06-20T22:20:35.233Z,9.30
2019-06-20T22:23:13.868Z,9.15
2019-06-20T22:25:52.025Z,8.93
2019-06-20T22:28:29.923Z,8.60
2019-06-20T22:31:07.730Z,10.00
2019-06-20T22:33:45.527Z,9.25
2019-06-20T22:36:38.722Z,8.63
2019-06-20T22:39:04.883Z,8.88
2019-06-20T22:41:42.990Z,8.78
2019-06-20T22:44:21.778Z,10.60
2019-06-20T22:47:00.034Z,9.90
2019-06-20T22:49:39.244Z,9.95
2019-06-20T22:52:16.661Z,10.13
2019-06-20T22:54:55.990Z,10.05
2019-06-20T22:57:34.276Z,9.45
2019-06-20T23:00:12.638Z,9.10
2019-06-20T23:02:50.422Z,9.43
2019-06-20T23:05:27.897Z,9.00
2019-06-20T23:08:06.387Z,7.58
2019-06-20T23:10:45.117Z,7.80
2019-06-20T23:13:24.433Z,6.97
2019-06-20T23:16:03.289Z,6.55
2019-06-20T23:18:42.217Z,6.42
2019-06-20T23:21:21.246Z,6.25
2019-06-20T23:23:59.434Z,6.92
2019-06-20T23:26:37.661Z,6.17
2019-06-20T23:29:28.556Z,6.05
2019-06-20T23:32:06.708Z,4.90
2019-06-20T23:34:45.060Z,4.85
2019-06-20T23:37:23.400Z,4.62
2019-06-20T23:40:02.063Z,4.35
2019-06-20T23:42:40.871Z,5.42
2019-06-20T23:45:18.804Z,5.28
2019-06-20T23:47:58.136Z,5.87
2019-06-20T23:50:35.992Z,4.87
2019-06-20T23:53:27.296Z,4.67
2019-06-20T23:56:07.920Z,4.75
2019-06-20T23:58:44.839Z,5.65
